Time;durP1;ratioP1;P1;durP2;ratioP2;P2;SDS_P1;SDS_P2;PMS_P1;PMS_P2;Temp;Humidity;BMP_temperature;BMP_pressure;BME280_temperature;BME280_humidity;BME280_pressure;Samples;Min_cycle;Max_cycle;Signal;HPM_P1;HPM_P2
2021/12/01 00:01:41;;;;;;;3.67;1.17;;;10.70;99.90;;;;;;5044845;28;20372;-82
2021/12/01 00:04:07;;;;;;;2.10;0.90;;;10.70;99.90;;;;;;5061620;28;20029;-81
2021/12/01 00:06:34;;;;;;;3.88;1.30;;;10.60;99.90;;;;;;5054831;28;20478;-81
2021/12/01 00:09:00;;;;;;;2.30;1.05;;;10.70;99.90;;;;;;5055527;28;20061;-82
2021/12/01 00:11:26;;;;;;;1.77;0.68;;;10.70;99.90;;;;;;5058846;28;20070;-80
2021/12/01 00:13:52;;;;;;;1.88;0.80;;;10.60;99.90;;;;;;5064999;28;20033;-81
2021/12/01 00:16:18;;;;;;;1.27;0.68;;;10.60;99.90;;;;;;5051113;28;20434;-81
2021/12/01 00:18:43;;;;;;;0.63;0.60;;;10.50;99.90;;;;;;5054802;28;20461;-81
2021/12/01 00:21:09;;;;;;;1.55;0.60;;;10.60;99.90;;;;;;5054788;28;20135;-82
2021/12/01 00:23:35;;;;;;;0.73;0.73;;;10.50;99.90;;;;;;5056513;28;20028;-82
2021/12/01 00:26:02;;;;;;;2.35;0.68;;;10.50;99.90;;;;;;5062874;28;20029;-81
2021/12/01 00:28:29;;;;;;;2.38;1.00;;;10.50;99.90;;;;;;5054494;28;20472;-82
2021/12/01 00:30:57;;;;;;;1.30;0.93;;;10.60;99.90;;;;;;5054724;28;20041;-81
2021/12/01 00:33:24;;;;;;;1.50;1.23;;;10.50;99.90;;;;;;5054386;28;20043;-81
2021/12/01 00:35:55;;;;;;;2.15;1.40;;;10.50;99.90;;;;;;5054251;28;20037;-82
2021/12/01 00:38:23;;;;;;;3.53;1.10;;;10.50;99.90;;;;;;5054355;28;20017;-81
2021/12/01 00:40:49;;;;;;;3.70;1.55;;;10.40;99.90;;;;;;5067347;28;20025;-82
2021/12/01 00:43:17;;;;;;;1.85;1.40;;;10.40;99.90;;;;;;5064575;28;20040;-81
2021/12/01 00:45:54;;;;;;;6.68;2.08;;;10.40;99.90;;;;;;5054465;28;20028;-82
2021/12/01 00:48:20;;;;;;;4.50;2.20;;;10.40;99.90;;;;;;5054046;28;20033;-81
2021/12/01 00:50:47;;;;;;;3.05;1.90;;;10.40;99.90;;;;;;5054373;28;20531;-81
2021/12/01 00:53:13;;;;;;;5.43;2.20;;;10.40;99.90;;;;;;5054126;28;20033;-81
2021/12/01 00:55:43;;;;;;;3.47;1.90;;;10.40;99.90;;;;;;5054257;28;20511;-81
2021/12/01 00:58:11;;;;;;;2.15;1.83;;;10.40;99.90;;;;;;5054315;28;20019;-81
2021/12/01 01:00:38;;;;;;;2.20;2.00;;;10.30;99.90;;;;;;5054033;28;20044;-81
2021/12/01 01:03:04;;;;;;;5.60;2.20;;;10.40;99.90;;;;;;5053750;28;20021;-82
2021/12/01 01:05:30;;;;;;;3.75;2.45;;;10.40;99.90;;;;;;5054084;28;20036;-82
2021/12/01 01:07:56;;;;;;;5.88;2.10;;;10.40;99.90;;;;;;5049235;28;20112;-82
2021/12/01 01:18:28;;;;;;;3.75;2.60;;;10.10;99.90;;;;;;5053214;28;20100;-82
2021/12/01 01:20:54;;;;;;;6.32;3.58;;;10.00;99.90;;;;;;5053760;28;20477;-82
2021/12/01 01:23:20;;;;;;;3.95;3.50;;;10.00;99.90;;;;;;5053644;28;20062;-82
2021/12/01 01:25:46;;;;;;;3.85;3.53;;;9.90;99.90;;;;;;5045561;28;20067;-82
2021/12/01 01:28:12;;;;;;;4.82;4.13;;;9.90;99.90;;;;;;5057651;28;20064;-83
2021/12/01 01:30:38;;;;;;;5.22;4.70;;;9.90;99.90;;;;;;5053567;28;20427;-82
2021/12/01 01:33:03;;;;;;;6.40;4.30;;;9.90;99.90;;;;;;5053333;28;20029;-81
2021/12/01 01:35:29;;;;;;;5.80;5.30;;;9.80;99.90;;;;;;5053208;28;20037;-82
2021/12/01 01:37:55;;;;;;;7.10;4.97;;;9.80;99.90;;;;;;5053433;28;20060;-82
2021/12/01 01:40:21;;;;;;;6.78;4.88;;;9.80;99.90;;;;;;5053342;28;20029;-82
2021/12/01 01:42:48;;;;;;;5.53;5.00;;;9.80;99.90;;;;;;5067539;28;20539;-83
2021/12/01 01:45:14;;;;;;;4.78;4.28;;;9.80;99.90;;;;;;5053314;28;20119;-82
2021/12/01 01:48:10;;;;;;;8.77;6.47;;;9.80;99.90;;;;;;5062913;28;20031;-81
2021/12/01 01:50:39;;;;;;;5.97;5.38;;;9.80;99.90;;;;;;5053062;28;20041;-82
2021/12/01 01:53:06;;;;;;;5.45;4.47;;;9.80;99.90;;;;;;5065911;28;20028;-81
2021/12/01 01:55:32;;;;;;;4.75;3.85;;;9.70;99.90;;;;;;5059382;28;20499;-83
2021/12/01 01:57:58;;;;;;;5.70;4.15;;;9.70;99.90;;;;;;5060353;28;20025;-83
2021/12/01 02:00:25;;;;;;;4.07;2.97;;;9.80;99.90;;;;;;5052960;28;20546;-82
2021/12/01 02:02:51;;;;;;;5.32;4.22;;;9.70;99.90;;;;;;5052827;28;20029;-82
2021/12/01 02:05:17;;;;;;;5.82;3.35;;;9.70;99.90;;;;;;5066990;28;20036;-81
2021/12/01 02:07:43;;;;;;;3.78;3.47;;;9.70;99.90;;;;;;5054556;28;20090;-82
2021/12/01 02:10:10;;;;;;;5.18;2.92;;;9.70;99.90;;;;;;5058325;28;20033;-83
2021/12/01 02:12:39;;;;;;;3.22;2.67;;;9.70;99.90;;;;;;5052901;28;20528;-82
2021/12/01 02:15:07;;;;;;;2.90;2.65;;;9.70;99.90;;;;;;5052496;28;20060;-82
2021/12/01 02:17:32;;;;;;;2.53;2.33;;;9.70;99.90;;;;;;5052795;28;20013;-83
2021/12/01 02:19:58;;;;;;;4.03;2.53;;;9.70;99.90;;;;;;5052105;28;20396;-83
2021/12/01 02:22:24;;;;;;;4.65;2.78;;;9.70;99.90;;;;;;5066642;28;20100;-82
2021/12/01 02:24:50;;;;;;;3.78;2.42;;;9.70;99.90;;;;;;5052556;28;20033;-83
2021/12/01 02:27:15;;;;;;;2.60;2.30;;;9.70;99.90;;;;;;5048623;28;20073;-84
2021/12/01 02:29:41;;;;;;;3.58;2.40;;;9.70;99.90;;;;;;5034527;28;20033;-83
2021/12/01 02:32:07;;;;;;;4.97;2.40;;;9.60;99.90;;;;;;5052897;28;20139;-82
2021/12/01 02:34:35;;;;;;;3.80;2.42;;;9.60;99.90;;;;;;5052504;28;20486;-83
2021/12/01 02:37:01;;;;;;;4.28;3.38;;;9.60;99.90;;;;;;5052528;28;20029;-81
2021/12/01 02:39:28;;;;;;;3.63;3.33;;;9.60;99.90;;;;;;5052410;28;20417;-82
2021/12/01 02:42:00;;;;;;;5.13;3.10;;;9.60;99.90;;;;;;5052498;28;20021;-83
2021/12/01 02:44:28;;;;;;;;;;;9.50;99.90;;;;;;5052671;28;20068;-83
2021/12/01 02:46:54;;;;;;;4.72;4.03;;;9.50;99.90;;;;;;5052511;28;19911;-83
2021/12/01 02:49:21;;;;;;;5.18;4.55;;;9.50;99.90;;;;;;5052750;28;20108;-83
2021/12/01 02:51:49;;;;;;;5.90;5.15;;;9.40;99.90;;;;;;5053086;28;20021;-82
2021/12/01 02:54:15;;;;;;;6.90;5.50;;;9.50;99.90;;;;;;5057080;28;20036;-82
2021/12/01 02:56:46;;;;;;;7.07;4.78;;;9.40;99.90;;;;;;5071407;28;20041;-82
2021/12/01 02:59:12;;;;;;;5.18;4.53;;;9.40;99.90;;;;;;5053762;28;20527;-83
2021/12/01 03:01:38;;;;;;;7.00;5.13;;;9.40;99.90;;;;;;5053305;28;20537;-82
2021/12/01 03:04:04;;;;;;;7.93;4.35;;;9.40;99.90;;;;;;5044936;28;20063;-81
2021/12/01 03:06:30;;;;;;;4.32;3.88;;;9.40;99.90;;;;;;5058453;28;20386;-80
2021/12/01 03:08:57;;;;;;;12.05;4.03;;;9.30;99.90;;;;;;5058171;28;20033;-80
2021/12/01 03:11:24;;;;;;;4.32;3.85;;;9.30;99.90;;;;;;5035015;28;20482;-80
2021/12/01 03:13:50;;;;;;;4.47;3.50;;;9.30;99.90;;;;;;5052477;28;20037;-80
2021/12/01 03:16:16;;;;;;;8.98;3.65;;;9.30;99.90;;;;;;5052930;28;20021;-80
2021/12/01 03:18:44;;;;;;;5.80;3.33;;;9.20;99.90;;;;;;5052460;28;20044;-79
2021/12/01 03:21:11;;;;;;;5.03;3.42;;;9.20;99.90;;;;;;5052619;28;20021;-80
2021/12/01 03:23:37;;;;;;;4.68;3.83;;;9.10;99.90;;;;;;5052255;28;20051;-80
2021/12/01 03:26:03;;;;;;;5.05;3.78;;;9.10;99.90;;;;;;5056762;28;20040;-80
2021/12/01 03:28:29;;;;;;;4.80;3.92;;;9.20;99.90;;;;;;5052074;28;20424;-81
2021/12/01 03:30:55;;;;;;;2.97;2.35;;;9.20;99.90;;;;;;5052856;28;20075;-80
2021/12/01 03:33:22;;;;;;;5.75;3.92;;;9.10;99.90;;;;;;5055467;28;20025;-80
2021/12/01 03:35:52;;;;;;;4.22;3.72;;;9.10;99.90;;;;;;5059718;28;20081;-79
2021/12/01 03:38:21;;;;;;;10.43;4.40;;;9.20;99.90;;;;;;5065097;28;20116;-81
2021/12/01 03:40:47;;;;;;;6.00;3.75;;;9.10;99.90;;;;;;5055654;28;20108;-75
2021/12/01 03:43:13;;;;;;;4.95;3.83;;;9.10;99.90;;;;;;5055468;28;20067;-81
2021/12/01 03:45:40;;;;;;;3.35;3.03;;;9.10;99.90;;;;;;5055506;28;20040;-81
2021/12/01 03:48:06;;;;;;;6.72;4.35;;;9.10;99.90;;;;;;5055374;28;20029;-81
2021/12/01 03:50:32;;;;;;;4.63;3.85;;;9.10;99.90;;;;;;5055422;28;20025;-81
2021/12/01 03:52:58;;;;;;;4.28;2.92;;;9.20;99.90;;;;;;5060643;28;20082;-81
2021/12/01 03:55:24;;;;;;;6.03;3.47;;;9.20;99.90;;;;;;5071331;28;20469;-80
2021/12/01 03:57:50;;;;;;;4.45;3.65;;;9.20;99.90;;;;;;5061314;28;20017;-81
2021/12/01 04:00:17;;;;;;;5.00;3.70;;;9.20;99.90;;;;;;5037362;28;20509;-81
2021/12/01 04:02:45;;;;;;;4.15;3.65;;;9.20;99.90;;;;;;5055736;28;20531;-81
2021/12/01 04:05:12;;;;;;;4.10;2.72;;;9.10;99.90;;;;;;5055060;28;20021;-80
2021/12/01 04:07:39;;;;;;;4.78;3.80;;;9.10;99.90;;;;;;5038065;28;20367;-80
2021/12/01 04:10:09;;;;;;;7.18;3.55;;;9.10;99.90;;;;;;5058582;28;20033;-80
2021/12/01 04:12:35;;;;;;;4.72;3.63;;;9.00;99.90;;;;;;5054806;28;20541;-81
2021/12/01 04:15:02;;;;;;;4.93;3.67;;;9.00;99.90;;;;;;5054810;28;20112;-80
2021/12/01 04:17:28;;;;;;;5.00;3.58;;;8.90;99.90;;;;;;5054945;28;20040;-80
2021/12/01 04:19:54;;;;;;;5.90;3.75;;;8.90;99.90;;;;;;5054890;28;20037;-81
2021/12/01 04:22:19;;;;;;;3.70;3.30;;;8.80;99.90;;;;;;5036977;28;20064;-80
2021/12/01 04:24:45;;;;;;;7.80;2.85;;;8.80;99.90;;;;;;5054771;28;20120;-81
2021/12/01 04:27:12;;;;;;;4.13;3.25;;;8.80;99.90;;;;;;5054441;28;20044;-81
2021/12/01 04:29:39;;;;;;;4.70;3.60;;;8.80;99.90;;;;;;5054855;28;20017;-80
2021/12/01 04:32:05;;;;;;;5.18;2.78;;;8.90;99.90;;;;;;5054743;28;20100;-81
2021/12/01 04:34:31;;;;;;;4.43;3.67;;;8.80;99.90;;;;;;5054516;28;20065;-82
2021/12/01 04:36:58;;;;;;;4.20;2.85;;;8.80;99.90;;;;;;5054648;28;20438;-81
2021/12/01 04:39:23;;;;;;;10.35;4.50;;;8.80;99.90;;;;;;5054483;28;20547;-83
2021/12/01 04:41:55;;;;;;;4.40;3.85;;;8.80;99.90;;;;;;5054351;28;20029;-83
2021/12/01 04:44:22;;;;;;;4.38;3.67;;;8.90;99.90;;;;;;5053956;28;20075;-81
2021/12/01 04:46:51;;;;;;;5.20;4.03;;;8.80;99.90;;;;;;5054511;28;20083;-81
2021/12/01 04:49:21;;;;;;;5.05;3.58;;;8.80;99.90;;;;;;5036224;28;20066;-83
2021/12/01 04:51:58;;;;;;;4.68;4.03;;;8.80;99.90;;;;;;5054294;28;20029;-82
2021/12/01 04:54:25;;;;;;;4.63;3.92;;;8.80;99.90;;;;;;5054130;28;20115;-82
2021/12/01 04:56:52;;;;;;;6.97;4.50;;;8.80;99.90;;;;;;5036019;28;20462;-82
2021/12/01 04:59:19;;;;;;;4.47;3.63;;;8.90;99.90;;;;;;5054067;28;20477;-81
2021/12/01 05:01:45;;;;;;;3.50;3.17;;;8.90;99.90;;;;;;5054309;28;20074;-81
2021/12/01 05:04:11;;;;;;;5.95;3.67;;;8.80;99.90;;;;;;5053817;28;20037;-82
2021/12/01 05:06:38;;;;;;;4.03;3.45;;;8.80;99.90;;;;;;5036051;28;20025;-82
2021/12/01 05:09:07;;;;;;;3.55;3.10;;;8.80;99.90;;;;;;5058317;28;20500;-82
2021/12/01 05:11:32;;;;;;;6.05;3.40;;;8.90;99.90;;;;;;5035999;28;20092;-80
2021/12/01 05:13:58;;;;;;;5.82;2.83;;;8.90;99.90;;;;;;5064671;28;20127;-82
2021/12/01 05:16:24;;;;;;;2.08;1.77;;;8.90;99.90;;;;;;5036203;28;20033;-83
2021/12/01 05:18:51;;;;;;;2.95;2.60;;;8.90;99.90;;;;;;5053581;28;20029;-83
2021/12/01 05:21:17;;;;;;;6.35;2.40;;;8.90;99.90;;;;;;5053780;28;20086;-82
2021/12/01 05:23:43;;;;;;;2.65;2.13;;;8.90;99.90;;;;;;5053760;28;20847;-83
2021/12/01 05:26:10;;;;;;;2.55;2.28;;;8.90;99.90;;;;;;5057979;28;20108;-83
2021/12/01 05:28:37;;;;;;;3.15;2.42;;;8.90;99.90;;;;;;5035651;28;20370;-83
2021/12/01 05:31:03;;;;;;;6.40;2.40;;;8.90;99.90;;;;;;5053470;28;20469;-81
2021/12/01 05:33:29;;;;;;;3.15;2.13;;;9.00;99.90;;;;;;5053643;28;20037;-81
2021/12/01 05:35:55;;;;;;;2.88;2.20;;;8.90;99.90;;;;;;5054475;28;20090;-79
2021/12/01 05:38:21;;;;;;;2.08;1.73;;;8.90;99.90;;;;;;5044263;28;20017;-82
2021/12/01 05:40:49;;;;;;;2.70;2.05;;;8.90;99.90;;;;;;5053040;28;20059;-81
2021/12/01 05:43:17;;;;;;;1.98;1.80;;;9.00;99.90;;;;;;5035542;28;20087;-81
2021/12/01 05:45:43;;;;;;;3.42;2.10;;;8.90;99.90;;;;;;5035465;28;20059;-82
2021/12/01 05:48:10;;;;;;;5.47;2.50;;;8.90;99.90;;;;;;5053328;28;20486;-82
2021/12/01 05:50:36;;;;;;;2.88;2.50;;;9.00;99.90;;;;;;5049264;28;20036;-81
2021/12/01 05:53:02;;;;;;;3.25;2.95;;;9.00;99.90;;;;;;5052891;28;20112;-79
2021/12/01 05:55:28;;;;;;;2.83;2.10;;;9.10;99.90;;;;;;5060289;28;20028;-80
2021/12/01 05:57:53;;;;;;;5.75;2.67;;;9.10;99.90;;;;;;5058948;28;20386;-81
2021/12/01 06:00:19;;;;;;;2.72;2.10;;;9.10;99.90;;;;;;5052961;28;20025;-82
2021/12/01 06:02:49;;;;;;;6.03;2.28;;;9.10;99.90;;;;;;5053406;28;20040;-83
2021/12/01 06:05:16;;;;;;;2.95;2.45;;;9.10;99.90;;;;;;5052733;28;20037;-82
2021/12/01 06:07:43;;;;;;;4.07;2.60;;;9.20;99.90;;;;;;5054144;28;20021;-83
2021/12/01 06:10:09;;;;;;;4.25;2.88;;;9.20;99.90;;;;;;5055870;28;20021;-83
2021/12/01 06:12:36;;;;;;;4.25;2.83;;;9.20;99.90;;;;;;5052937;28;20024;-82
2021/12/01 06:15:03;;;;;;;3.97;2.65;;;9.30;99.90;;;;;;5052624;28;20057;-82
2021/12/01 06:17:28;;;;;;;4.25;3.28;;;9.30;99.90;;;;;;5052886;28;20377;-82
2021/12/01 06:19:54;;;;;;;3.78;3.30;;;9.30;99.90;;;;;;5052960;28;20041;-82
2021/12/01 06:22:20;;;;;;;4.57;2.97;;;9.40;99.90;;;;;;5052250;28;20032;-82
2021/12/01 06:24:46;;;;;;;6.95;3.20;;;9.30;99.90;;;;;;5052613;28;20025;-82
2021/12/01 06:27:12;;;;;;;6.38;3.80;;;9.30;99.90;;;;;;5052421;28;20024;-82
2021/12/01 06:29:38;;;;;;;4.50;3.63;;;9.30;99.90;;;;;;5052919;28;20010;-83
2021/12/01 06:32:04;;;;;;;5.72;3.00;;;9.30;99.90;;;;;;5052777;28;20389;-83
2021/12/01 06:34:30;;;;;;;4.55;3.42;;;9.30;99.90;;;;;;5052635;28;20128;-82
2021/12/01 06:36:56;;;;;;;3.97;2.55;;;9.30;99.90;;;;;;5034642;28;20440;-82
2021/12/01 06:39:22;;;;;;;5.25;3.38;;;9.40;99.90;;;;;;5034717;28;20074;-82
2021/12/01 06:41:47;;;;;;;5.43;3.00;;;9.40;99.90;;;;;;5052457;28;20021;-83
2021/12/01 06:44:14;;;;;;;5.53;3.22;;;9.40;99.90;;;;;;5052276;28;20059;-84
2021/12/01 06:46:40;;;;;;;5.30;3.05;;;9.40;99.90;;;;;;5052494;28;20029;-85
2021/12/01 06:49:06;;;;;;;4.63;3.28;;;9.40;99.90;;;;;;5034586;28;20040;-83
2021/12/01 06:51:32;;;;;;;3.20;2.30;;;9.40;99.90;;;;;;5032929;28;20033;-82
2021/12/01 06:53:57;;;;;;;4.38;3.17;;;9.40;99.90;;;;;;5061888;28;20050;-81
2021/12/01 06:56:23;;;;;;;4.65;2.28;;;9.40;99.90;;;;;;5070892;28;20093;-82
2021/12/01 06:58:50;;;;;;;3.63;2.05;;;9.40;99.90;;;;;;5045322;28;20126;-80
2021/12/01 07:01:16;;;;;;;3.67;1.48;;;9.30;99.90;;;;;;5060171;28;20036;-81
2021/12/01 07:03:42;;;;;;;1.42;1.02;;;9.30;99.90;;;;;;5051832;28;20397;-76
2021/12/01 07:06:08;;;;;;;5.22;1.70;;;9.30;99.90;;;;;;5060296;28;20037;-81
2021/12/01 07:08:35;;;;;;;3.65;1.48;;;9.30;99.90;;;;;;5062432;28;20025;-82
2021/12/01 07:11:02;;;;;;;1.95;1.55;;;9.40;99.90;;;;;;5055948;28;20116;-82
2021/12/01 07:13:31;;;;;;;1.75;1.33;;;9.50;99.90;;;;;;5055474;28;20029;-82
2021/12/01 07:15:57;;;;;;;2.10;1.42;;;9.40;99.90;;;;;;5065065;28;20427;-82
2021/12/01 07:18:23;;;;;;;2.67;1.30;;;9.50;99.90;;;;;;5055343;28;20029;-81
2021/12/01 07:20:49;;;;;;;1.40;1.20;;;9.50;99.90;;;;;;5057040;28;20071;-80
2021/12/01 07:23:14;;;;;;;1.75;1.33;;;9.60;99.90;;;;;;5055876;28;20452;-82
2021/12/01 07:25:41;;;;;;;4.88;1.08;;;9.60;99.90;;;;;;5055353;28;20492;-82
2021/12/01 07:28:06;;;;;;;2.25;1.42;;;9.60;99.90;;;;;;5055409;28;20057;-82
2021/12/01 07:30:35;;;;;;;1.83;0.90;;;9.60;99.90;;;;;;5055265;28;20063;-82
2021/12/01 07:33:01;;;;;;;1.42;1.10;;;9.50;99.90;;;;;;5046310;28;20032;-81
2021/12/01 07:35:27;;;;;;;1.13;1.02;;;9.50;99.90;;;;;;5054752;28;20056;-81
2021/12/01 07:37:53;;;;;;;2.28;0.93;;;9.60;99.90;;;;;;5055458;28;20029;-77
2021/12/01 07:40:19;;;;;;;1.30;1.08;;;9.60;99.90;;;;;;5054165;28;20036;-81
2021/12/01 07:42:45;;;;;;;1.40;0.95;;;9.60;99.90;;;;;;5055012;28;20021;-81
2021/12/01 07:45:11;;;;;;;1.15;1.00;;;9.60;99.90;;;;;;5037260;28;20408;-80
2021/12/01 07:47:37;;;;;;;1.00;0.90;;;9.60;99.90;;;;;;5054988;28;20470;-81
2021/12/01 07:50:05;;;;;;;2.70;1.10;;;9.60;99.90;;;;;;5054745;28;20033;-80
2021/12/01 07:52:32;;;;;;;2.55;1.05;;;9.50;99.90;;;;;;5054687;28;20055;-81
2021/12/01 07:54:58;;;;;;;0.95;0.88;;;9.60;99.90;;;;;;5040996;28;20037;-78
2021/12/01 07:57:24;;;;;;;3.17;1.38;;;9.60;99.90;;;;;;5064705;28;20018;-81
2021/12/01 07:59:50;;;;;;;2.72;1.20;;;9.60;99.90;;;;;;5038978;28;20033;-82
2021/12/01 08:02:16;;;;;;;0.80;0.80;;;9.60;99.90;;;;;;5067717;28;20036;-82
2021/12/01 08:04:42;;;;;;;1.15;0.80;;;9.60;99.90;;;;;;5054442;28;20029;-78
2021/12/01 08:07:08;;;;;;;3.40;1.65;;;9.50;99.90;;;;;;5066489;28;20366;-82
2021/12/01 08:09:34;;;;;;;0.65;0.55;;;9.60;99.90;;;;;;5053649;28;20078;-82
2021/12/01 08:12:00;;;;;;;1.52;0.80;;;9.70;99.90;;;;;;5042083;28;20032;-81
2021/12/01 08:14:26;;;;;;;0.75;0.70;;;9.60;99.90;;;;;;5063026;28;20045;-82
2021/12/01 08:16:52;;;;;;;1.33;0.90;;;9.70;99.90;;;;;;5054458;28;20362;-81
2021/12/01 08:19:18;;;;;;;4.50;0.90;;;9.70;99.90;;;;;;5053328;28;20392;-82
2021/12/01 08:21:47;;;;;;;3.00;0.77;;;9.70;99.90;;;;;;5054260;28;20386;-82
2021/12/01 08:24:14;;;;;;;2.70;0.80;;;9.70;99.90;;;;;;5054468;28;20028;-82
2021/12/01 08:26:41;;;;;;;1.90;1.30;;;9.60;99.90;;;;;;5058942;28;20037;-81
2021/12/01 08:29:07;;;;;;;1.25;0.80;;;9.60;99.90;;;;;;5054272;28;20078;-82
2021/12/01 08:31:33;;;;;;;2.00;0.80;;;9.60;99.90;;;;;;5047578;28;20028;-81
2021/12/01 08:33:59;;;;;;;5.75;1.23;;;9.50;99.90;;;;;;5038733;28;20033;-81
2021/12/01 08:36:25;;;;;;;2.85;1.95;;;9.50;99.90;;;;;;5054283;28;20032;-81
2021/12/01 08:38:51;;;;;;;1.67;1.10;;;9.50;99.90;;;;;;5054001;28;20028;-81
2021/12/01 08:41:17;;;;;;;1.35;1.25;;;9.40;99.90;;;;;;5054170;28;20108;-81
2021/12/01 08:43:43;;;;;;;5.80;1.40;;;9.50;99.90;;;;;;5036331;28;20028;-81
2021/12/01 08:46:09;;;;;;;2.70;1.58;;;9.40;99.90;;;;;;5055568;28;20044;-78
2021/12/01 08:48:36;;;;;;;1.92;1.40;;;9.40;99.90;;;;;;5062428;28;20041;-82
2021/12/01 08:51:03;;;;;;;4.93;2.42;;;9.50;99.90;;;;;;5053011;28;20029;-82
2021/12/01 08:53:30;;;;;;;7.68;3.13;;;9.50;99.90;;;;;;5052110;28;20102;-82
2021/12/01 08:55:57;;;;;;;3.80;2.47;;;9.40;99.90;;;;;;5052581;28;20029;-82
2021/12/01 08:58:24;;;;;;;2.20;1.90;;;9.40;99.90;;;;;;5055826;28;20032;-82
2021/12/01 09:00:49;;;;;;;6.10;3.13;;;9.40;99.90;;;;;;5064322;28;20384;-81
2021/12/01 09:03:18;;;;;;;4.22;2.47;;;9.40;99.90;;;;;;5039612;28;20037;-82
2021/12/01 09:05:45;;;;;;;7.50;3.22;;;9.30;99.90;;;;;;5053982;28;20049;-81
2021/12/01 09:08:12;;;;;;;11.70;3.47;;;9.30;99.90;;;;;;5058460;28;20020;-79
2021/12/01 09:10:38;;;;;;;15.20;4.25;;;9.30;99.90;;;;;;5054003;28;20082;-81
2021/12/01 09:13:06;;;;;;;15.23;5.32;;;9.30;99.90;;;;;;5036226;28;20080;-81
2021/12/01 09:15:32;;;;;;;9.20;3.95;;;9.30;99.90;;;;;;5048868;28;20045;-79
2021/12/01 09:17:59;;;;;;;20.23;5.38;;;9.30;99.90;;;;;;5054050;28;20029;-82
2021/12/01 09:20:25;;;;;;;12.05;2.65;;;9.20;99.90;;;;;;5053566;28;20029;-83
2021/12/01 09:22:52;;;;;;;10.52;2.72;;;9.20;99.90;;;;;;5054009;28;20056;-83
2021/12/01 09:25:18;;;;;;;9.20;3.67;;;9.30;99.90;;;;;;5035349;28;20017;-83
2021/12/01 09:27:45;;;;;;;13.73;3.75;;;9.40;99.90;;;;;;5035967;28;20098;-82
2021/12/01 09:30:13;;;;;;;18.65;2.58;;;9.40;99.90;;;;;;5053216;28;20039;-83
2021/12/01 09:32:39;;;;;;;11.98;2.33;;;9.50;99.90;;;;;;5054462;28;20100;-80
2021/12/01 09:35:07;;;;;;;10.52;1.85;;;9.50;99.90;;;;;;5053763;28;20128;-83
2021/12/01 09:37:33;;;;;;;15.02;2.30;;;9.60;99.90;;;;;;5035819;28;20016;-83
2021/12/01 09:40:02;;;;;;;13.98;2.70;;;9.50;99.90;;;;;;5053829;28;20430;-83
2021/12/01 09:42:28;;;;;;;13.80;2.28;;;9.60;99.90;;;;;;5053172;28;20028;-83
2021/12/01 09:44:56;;;;;;;16.77;2.40;;;9.50;99.90;;;;;;5053493;28;20385;-82
2021/12/01 09:47:21;;;;;;;10.05;2.70;;;9.40;99.90;;;;;;5035275;28;20037;-83
2021/12/01 09:49:48;;;;;;;13.52;2.17;;;9.40;99.90;;;;;;5053132;28;20025;-83
2021/12/01 09:52:13;;;;;;;16.85;2.30;;;9.40;99.90;;;;;;5053379;28;20481;-77
2021/12/01 09:54:40;;;;;;;9.68;1.50;;;9.40;99.90;;;;;;5036360;28;20029;-83
2021/12/01 09:57:07;;;;;;;12.13;1.90;;;9.50;99.90;;;;;;5065509;28;20025;-83
2021/12/01 09:59:33;;;;;;;21.25;2.33;;;9.40;99.90;;;;;;5052724;28;20033;-83
2021/12/01 10:01:59;;;;;;;16.05;1.58;;;9.50;99.90;;;;;;5052983;28;20430;-83
2021/12/01 10:04:25;;;;;;;16.88;2.17;;;9.50;99.90;;;;;;5053132;28;20037;-83
2021/12/01 10:06:54;;;;;;;5.43;1.38;;;9.50;99.90;;;;;;5052846;28;20145;-83
2021/12/01 10:09:21;;;;;;;12.00;1.60;;;9.60;99.90;;;;;;5057329;28;20025;-83
2021/12/01 10:11:47;;;;;;;9.55;1.48;;;9.60;99.90;;;;;;5052527;28;20075;-83
2021/12/01 10:14:18;;;;;;;7.38;1.70;;;9.50;99.90;;;;;;5052610;28;20039;-83
2021/12/01 10:16:45;;;;;;;9.45;1.55;;;9.50;99.90;;;;;;5052672;28;20036;-84
2021/12/01 10:19:15;;;;;;;15.10;2.30;;;9.60;99.90;;;;;;5052821;28;20029;-83
2021/12/01 10:21:44;;;;;;;13.13;1.80;;;9.60;99.90;;;;;;5052497;28;20436;-83
2021/12/01 10:24:34;;;;;;;13.13;3.10;;;9.70;99.90;;;;;;5052824;28;20407;-83
2021/12/01 10:27:03;;;;;;;6.78;1.23;;;9.80;99.90;;;;;;5052575;28;20028;-84
2021/12/01 10:29:39;;;;;;;7.97;1.33;;;10.00;99.90;;;;;;5052448;28;20033;-84
2021/12/01 10:32:08;;;;;;;5.95;1.25;;;9.90;99.90;;;;;;5034561;28;20095;-83
2021/12/01 10:34:40;;;;;;;4.00;0.77;;;9.80;99.90;;;;;;5052692;28;20065;-83
2021/12/01 10:37:18;;;;;;;5.65;0.93;;;9.60;99.90;;;;;;5052335;28;20041;-79
2021/12/01 10:39:48;;;;;;;7.65;1.35;;;9.40;99.90;;;;;;5052686;28;20032;-82
2021/12/01 10:42:16;;;;;;;11.50;1.50;;;9.20;99.90;;;;;;5054609;28;20042;-83
2021/12/01 10:44:56;;;;;;;4.80;1.30;;;9.10;99.90;;;;;;5059051;28;20023;-82
2021/12/01 10:47:22;;;;;;;11.07;1.42;;;9.10;99.90;;;;;;5058859;28;20037;-82
2021/12/01 10:49:48;;;;;;;8.50;1.70;;;9.10;99.90;;;;;;5059115;28;20091;-80
2021/12/01 10:52:35;;;;;;;6.70;1.10;;;9.20;99.90;;;;;;5059106;28;20470;-82
2021/12/01 10:55:14;;;;;;;5.95;1.50;;;9.10;99.90;;;;;;5075109;28;20047;-79
2021/12/01 10:57:51;;;;;;;6.07;1.33;;;9.10;99.90;;;;;;5060562;28;20097;-82
2021/12/01 11:00:26;;;;;;;2.50;0.70;;;9.10;99.90;;;;;;5057584;28;20392;-82
2021/12/01 11:02:53;;;;;;;6.55;1.23;;;9.10;99.90;;;;;;5058639;28;20037;-81
2021/12/01 11:05:38;;;;;;;8.40;1.17;;;9.20;99.90;;;;;;5058823;28;20029;-75
2021/12/01 11:08:25;;;;;;;14.02;2.47;;;9.30;99.90;;;;;;5063204;28;20024;-82
2021/12/01 11:11:04;;;;;;;4.60;1.50;;;9.30;99.90;;;;;;5059063;28;20477;-80
2021/12/01 11:13:30;;;;;;;14.45;1.73;;;9.40;99.90;;;;;;5058169;28;20028;-82
2021/12/01 11:16:02;;;;;;;10.80;1.27;;;9.30;99.90;;;;;;5058932;28;20378;-82
2021/12/01 11:18:32;;;;;;;5.72;1.20;;;9.30;99.90;;;;;;5058499;28;20039;-82
2021/12/01 11:21:08;;;;;;;7.15;1.60;;;9.40;99.90;;;;;;5059014;28;20036;-82
2021/12/01 11:23:41;;;;;;;8.57;1.67;;;9.40;99.90;;;;;;5059540;28;20044;-83
2021/12/01 11:26:10;;;;;;;7.72;1.63;;;9.30;99.90;;;;;;5045024;28;20021;-82
2021/12/01 11:28:48;;;;;;;5.65;1.20;;;9.40;99.90;;;;;;5058851;28;20033;-83
2021/12/01 11:31:19;;;;;;;5.72;1.25;;;9.40;99.90;;;;;;5065061;28;20032;-83
2021/12/01 11:33:46;;;;;;;5.78;1.48;;;9.30;99.90;;;;;;5058523;28;20041;-83
2021/12/01 11:36:17;;;;;;;8.40;1.67;;;9.40;99.90;;;;;;5058925;28;20088;-82
2021/12/01 11:38:47;;;;;;;8.32;1.35;;;9.50;99.90;;;;;;5058452;28;20029;-82
2021/12/01 11:41:13;;;;;;;9.00;1.35;;;9.60;99.90;;;;;;5058433;28;20021;-81
2021/12/01 11:43:39;;;;;;;7.10;2.05;;;9.80;99.90;;;;;;5053348;28;20023;-84
2021/12/01 11:46:07;;;;;;;8.75;1.23;;;9.70;99.90;;;;;;5059654;28;20354;-83
2021/12/01 11:49:08;;;;;;;4.75;1.08;;;9.60;99.90;;;;;;5058490;28;20397;-82
2021/12/01 11:51:40;;;;;;;12.10;1.35;;;9.50;99.90;;;;;;5054365;28;20052;-83
2021/12/01 11:54:11;;;;;;;3.30;0.80;;;9.50;99.90;;;;;;5056312;28;20033;-81
2021/12/01 11:56:47;;;;;;;8.65;1.50;;;9.50;99.90;;;;;;5053819;28;20021;-84
2021/12/01 11:59:16;;;;;;;5.85;1.08;;;9.90;99.90;;;;;;5055655;28;20048;-83
2021/12/01 12:01:46;;;;;;;12.35;1.50;;;10.00;99.90;;;;;;5055503;28;20052;-84
2021/12/01 12:04:12;;;;;;;7.70;1.00;;;10.30;99.90;;;;;;5055320;28;20056;-84
2021/12/01 12:06:59;;;;;;;9.90;1.52;;;10.40;99.90;;;;;;5054908;28;20072;-83
2021/12/01 12:09:26;;;;;;;5.32;1.33;;;10.30;99.90;;;;;;5054522;28;20025;-83
2021/12/01 12:12:00;;;;;;;5.47;1.10;;;10.40;99.90;;;;;;5073560;28;20064;-83
2021/12/01 12:14:33;;;;;;;7.72;1.17;;;10.20;99.90;;;;;;5073611;28;20040;-81
2021/12/01 12:17:21;;;;;;;10.23;1.45;;;10.20;99.90;;;;;;5072711;28;20489;-82
2021/12/01 12:19:57;;;;;;;9.15;1.42;;;10.10;99.90;;;;;;5073621;28;20032;-82
2021/12/01 12:22:34;;;;;;;7.82;1.60;;;10.10;99.90;;;;;;5072633;28;20024;-82
2021/12/01 12:25:01;;;;;;;8.10;1.50;;;10.20;99.90;;;;;;5073171;28;20082;-81
2021/12/01 12:27:42;;;;;;;14.90;1.90;;;10.10;99.90;;;;;;5073529;28;20530;-82
2021/12/01 12:30:28;;;;;;;6.97;1.83;;;10.10;99.90;;;;;;5073680;28;20036;-81
2021/12/01 12:33:18;;;;;;;11.57;1.73;;;10.30;99.90;;;;;;5055370;28;20046;-82
2021/12/01 12:35:47;;;;;;;5.35;1.50;;;10.20;99.90;;;;;;5072209;28;20123;-83
2021/12/01 12:38:14;;;;;;;6.38;1.85;;;10.30;99.90;;;;;;5073443;28;20036;-82
2021/12/01 12:40:41;;;;;;;8.23;1.38;;;10.30;99.90;;;;;;5072657;28;20075;-82
2021/12/01 12:43:23;;;;;;;5.43;1.35;;;10.20;99.90;;;;;;5055754;28;20358;-82
2021/12/01 12:46:09;;;;;;;9.32;1.63;;;10.20;99.90;;;;;;5073238;28;20063;-83
2021/12/01 12:48:42;;;;;;;9.85;2.10;;;10.20;99.90;;;;;;5073094;28;20139;-82
2021/12/01 12:51:09;;;;;;;11.85;2.13;;;10.10;99.90;;;;;;5072339;28;20024;-81
2021/12/01 12:53:35;;;;;;;11.52;1.63;;;10.00;99.90;;;;;;5073082;28;20023;-80
2021/12/01 12:56:25;;;;;;;11.73;1.63;;;10.00;99.90;;;;;;5061044;28;20577;-82
2021/12/01 12:58:51;;;;;;;14.65;2.90;;;9.90;99.90;;;;;;5036381;28;20029;-83
2021/12/01 13:01:26;;;;;;;6.78;1.23;;;9.90;99.90;;;;;;5054351;28;20025;-80
2021/12/01 13:03:53;;;;;;;10.25;1.48;;;9.90;99.90;;;;;;5043189;28;20468;-82
2021/12/01 13:06:29;;;;;;;9.13;2.20;;;9.80;99.90;;;;;;5060629;28;20021;-82
2021/12/01 13:09:15;;;;;;;14.82;2.13;;;9.70;99.90;;;;;;5040344;28;20104;-82